Latest Weather Observations for Woolshed

IDQ60801

Issued at 8:32 am EST Sunday 25 September 2016 (issued every 30 minutes, with the page automatically refreshed every 10 minutes)

About weather observations | Map of weather stations | Latest weather observations for QLD | Other Formats
Station Details ID: 033307 Name: WOOLSHED Lat: -19.42 Lon: 146.54 Height: 556.04 m
Data from the previous 72 hours. | See also: Recent months at Woolshed
Date/Time
EST
Temp
°C
App
Temp
°C
Dew
Point
°C
Rel
Hum
%
Delta-T
°C
Wind Press
QNH
hPa
Press
MSL
hPa
Rain since
9am
mm
Dir  Spd
km/h
Gust
km/h
Spd
kts
Gust
kts
25/08:30am 23.0 25.2 19.6 81 2.2 NNE 7 17 4 9 1015.0 1012.5 0.0
25/08:00am 22.0 24.0 19.9 88 1.4 NNE 9 15 5 8 1014.8 1012.3 0.0
25/07:30am 21.2 23.6 20.0 93 0.8 NNE 7 15 4 8 1014.4 1011.8 0.0
25/07:00am 20.5 23.2 20.2 98 0.2 NNE 6 11 3 6 1014.0 1011.5 0.0
25/06:30am 20.4 22.9 20.2 99 0.1 NNE 7 13 4 7 1013.5 1011.0 0.0
25/06:00am 20.5 23.0 20.3 99 0.1 N 7 17 4 9 1013.1 1010.5 0.0
25/05:30am 20.4 23.1 20.2 99 0.1 NNE 6 13 3 7 1012.7 1010.1 0.0
25/05:00am 20.5 23.2 20.3 99 0.1 NNE 6 15 3 8 1012.5 1009.9 0.0
25/04:30am 20.4 22.9 20.2 99 0.1 NNE 7 15 4 8 1012.2 1009.7 0.0
25/04:00am 20.5 23.2 20.3 99 0.1 NNE 6 15 3 8 1011.9 1009.4 0.0
25/03:30am 20.6 23.8 20.4 99 0.1 NNE 4 9 2 5 1011.8 1009.3 0.0
25/03:00am 20.4 22.5 20.2 99 0.1 NNE 9 15 5 8 1011.8 1009.3 0.0
25/02:30am 20.4 22.9 20.2 99 0.1 NNE 7 13 4 7 1012.0 1009.5 0.0
25/02:00am 20.6 22.8 20.4 99 0.1 NNE 9 19 5 10 1012.2 1009.7 0.0
25/01:30am 20.7 22.6 20.5 99 0.1 N 11 19 6 10 1012.5 1009.9 0.0
25/01:00am 20.9 23.6 20.7 99 0.1 NNE 7 19 4 10 1012.7 1010.1 0.0
25/12:30am 20.9 23.6 20.7 99 0.1 NNE 7 17 4 9 1013.0 1010.4 0.0
25/12:00am 20.8 23.0 20.5 98 0.2 NNE 9 19 5 10 1013.1 1010.5 0.0
 
Date/Time
EST
Temp
°C
App
Temp
°C
Dew
Point
°C
Rel
Hum
%
Delta-T
°C
Wind Press
QNH
hPa
Press
MSL
hPa
Rain since
9am
mm
Dir  Spd
km/h
Gust
km/h
Spd
kts
Gust
kts
24/11:30pm 20.8 23.0 20.5 98 0.2 NNE 9 20 5 11 1013.0 1010.4 0.0
24/11:00pm 20.8 22.3 20.5 98 0.2 NNE 13 26 7 14 1012.9 1010.3 0.0
24/10:30pm 20.7 21.8 20.4 98 0.2 NNE 15 24 8 13 1012.8 1010.2 0.0
24/10:00pm 20.6 22.0 20.3 98 0.2 NNE 13 30 7 16 1012.8 1010.2 0.0
24/09:30pm 20.6 21.6 20.3 98 0.2 NNE 15 30 8 16 1012.9 1010.3 0.0
24/09:00pm 20.7 21.8 20.4 98 0.2 NNE 15 24 8 13 1012.8 1010.2 0.0
24/08:30pm 20.8 21.1 20.5 98 0.2 NNE 19 32 10 17 1012.7 1010.1 0.0
24/08:00pm 20.8 22.2 20.3 97 0.3 NNE 13 28 7 15 1012.5 1009.9 0.0
24/07:30pm 20.9 22.6 20.2 96 0.5 NNE 11 20 6 11 1012.2 1009.7 0.0
24/07:00pm 21.0 21.6 20.2 95 0.5 NNE 17 30 9 16 1012.0 1009.5 0.0
24/06:30pm 21.1 21.5 19.9 93 0.8 NNE 17 30 9 16 1011.7 1009.2 0.0
24/06:00pm 21.3 22.0 19.6 90 1.1 NNE 15 32 8 17 1011.3 1008.7 0.0
24/05:30pm 22.0 22.6 19.4 85 1.7 NNE 15 30 8 16 1011.1 1008.5 0.0
24/05:00pm 22.6 22.9 18.8 79 2.5 NNE 15 33 8 18 1011.0 1008.4 0.0
24/04:30pm 23.3 23.2 18.8 76 2.9 NNE 17 30 9 16 1010.9 1008.3 0.0
24/04:00pm 24.1 24.5 19.0 73 3.3 NNE 15 28 8 15 1010.8 1008.2 0.0
24/03:30pm 24.7 25.3 19.5 73 3.4 NNE 15 26 8 14 1010.8 1008.2 0.0
24/03:00pm 24.5 25.0 19.3 73 3.4 NNE 15 28 8 15 1011.1 1008.5 0.0
24/02:30pm 25.9 26.7 19.8 69 4.0 NNE 15 30 8 16 1011.5 1008.9 0.0
24/02:00pm 25.5 25.0 18.7 66 4.4 NNE 19 32 10 17 1011.9 1009.4 0.0
24/01:30pm 26.2 26.3 18.3 61 5.1 NNE 15 26 8 14 1012.5 1009.9 0.0
24/01:00pm 26.2 26.2 18.1 61 5.2 NNE 15 28 8 15 1013.0 1010.4 0.0
24/12:30pm 26.7 26.6 17.8 58 5.7 NNE 15 30 8 16 1013.4 1010.9 0.0
24/12:00pm 26.7 27.6 18.3 60 5.5 N 11 28 6 15 1013.9 1011.4 0.0
24/11:30am 24.8 25.2 17.3 63 4.8 NNE 11 26 6 14 1014.5 1011.9 0.0
24/11:00am 26.1 28.3 19.5 67 4.4 N 7 17 4 9 1015.0 1012.5 0.0
24/10:30am 25.0 25.9 18.4 66 4.3 NNE 11 19 6 10 1015.2 1012.7 0.0
24/10:00am 24.7 25.7 18.6 69 4.0 NNE 11 20 6 11 1015.5 1013.0 0.0
24/09:30am 24.2 25.0 19.1 73 3.3 NNE 13 22 7 12 1015.5 1013.0 0.0
24/09:00am 23.2 23.2 18.1 73 3.3 NNE 15 26 8 14 1015.7 1013.2 0.0
24/08:30am 22.9 23.7 19.1 79 2.5 N 13 28 7 15 1015.4 1012.9 0.0
24/08:00am 22.1 23.5 19.5 85 1.7 NNE 11 26 6 14 1015.3 1012.8 0.0
24/07:30am 21.1 22.5 20.4 96 0.5 NNE 13 22 7 12 1014.9 1012.4 0.0
24/07:00am 20.3 21.9 20.0 98 0.2 NNE 11 20 6 11 1014.5 1011.9 0.0
24/06:30am 20.1 21.7 19.9 99 0.1 NNE 11 20 6 11 1014.0 1011.5 0.0
24/06:00am 20.0 21.5 19.8 99 0.1 NNE 11 19 6 10 1013.6 1011.1 0.0
24/05:30am 20.0 21.9 19.8 99 0.1 NNE 9 19 5 10 1013.2 1010.7 0.0
24/05:00am 20.0 21.5 19.8 99 0.1 NNE 11 20 6 11 1013.1 1010.5 0.0
24/04:30am 19.8 21.6 19.5 98 0.2 NNE 9 19 5 10 1012.9 1010.3 0.0
24/04:00am 19.9 21.4 19.7 99 0.1 N 11 19 6 10 1012.7 1010.1 0.0
24/03:30am 19.9 21.4 19.7 99 0.1 N 11 17 6 9 1012.6 1010.0 0.0
24/03:00am 19.9 21.4 19.7 99 0.1 NNE 11 20 6 11 1012.7 1010.1 0.0
24/02:30am 20.0 21.5 19.8 99 0.1 NNE 11 19 6 10 1012.8 1010.2 0.0
24/02:00am 20.1 22.6 19.9 99 0.1 N 6 17 3 9 1013.0 1010.4 0.0
24/01:30am 20.1 22.4 19.9 99 0.1 NNE 7 15 4 8 1013.1 1010.5 0.0
24/01:00am 20.0 21.9 19.8 99 0.1 NNE 9 19 5 10 1013.3 1010.8 0.0
24/12:30am 20.0 21.9 19.8 99 0.1 NNE 9 24 5 13 1013.4 1010.9 0.0
24/12:00am 20.2 21.4 20.0 99 0.1 NNE 13 26 7 14 1013.3 1010.8 0.0
 
Date/Time
EST
Temp
°C
App
Temp
°C
Dew
Point
°C
Rel
Hum
%
Delta-T
°C
Wind Press
QNH
hPa
Press
MSL
hPa
Rain since
9am
mm
Dir  Spd
km/h
Gust
km/h
Spd
kts
Gust
kts
23/11:30pm 20.2 21.4 20.0 99 0.1 NNE 13 24 7 13 1013.0 1010.4 0.0
23/11:00pm 20.1 21.3 19.9 99 0.1 NNE 13 30 7 16 1013.1 1010.5 0.0
23/10:30pm 20.2 21.4 20.0 99 0.1 NNE 13 24 7 13 1013.2 1010.7 0.0
23/10:00pm 20.3 21.2 20.1 99 0.1 NNE 15 28 8 15 1013.3 1010.8 0.0
23/09:30pm 20.5 21.5 20.3 99 0.1 NNE 15 24 8 13 1013.4 1010.9 0.0
23/09:00pm 20.4 21.0 20.2 99 0.1 NNE 17 32 9 17 1013.4 1010.9 0.0
23/08:30pm 20.5 22.2 20.2 98 0.2 NNE 11 24 6 13 1013.4 1010.9 0.0
23/08:00pm 20.5 22.2 20.2 98 0.2 NNE 11 24 6 13 1013.1 1010.5 0.0
23/07:30pm 20.5 22.5 20.0 97 0.3 NNE 9 19 5 10 1013.1 1010.5 0.0
23/07:00pm 20.5 22.0 19.7 95 0.5 NNE 11 20 6 11 1013.0 1010.4 0.0
23/06:30pm 20.6 21.9 19.3 92 0.8 NNE 11 19 6 10 1012.6 1010.0 0.0
23/06:00pm 20.9 21.6 18.8 88 1.3 NNE 13 24 7 13 1012.3 1009.8 0.0
23/05:30pm 21.9 22.8 18.5 81 2.2 NNE 11 24 6 13 1012.0 1009.5 0.0
23/05:00pm 23.1 23.5 18.2 74 3.1 NNE 13 24 7 13 1011.9 1009.4 0.0
23/04:30pm 24.0 24.1 17.5 67 4.1 NNE 13 28 7 15 1011.7 1009.2 0.0
23/04:00pm 24.8 24.9 17.5 64 4.7 NNE 13 22 7 12 1011.6 1009.1 0.0
23/03:30pm 25.4 26.0 16.8 59 5.4 NNE 9 20 5 11 1011.7 1009.2 0.0
23/03:00pm 25.4 24.7 16.3 57 5.7 NE 15 26 8 14 1011.9 1009.4 0.0
23/02:30pm - - - - - N 11 26 6 14 1012.2 1009.7 0.0
23/02:00pm 27.3 27.6 16.9 53 6.6 NNW 11 22 6 12 1012.6 1010.0 0.0
23/01:30pm 26.6 27.0 16.2 52 6.5 NE 9 22 5 12 1013.1 1010.5 0.0
23/01:00pm 25.0 25.4 16.2 58 5.5 NNE 9 19 5 10 1013.5 1011.0 0.0
23/12:30pm 25.6 26.1 16.5 57 5.7 NNE 9 20 5 11 1014.0 1011.5 0.0
23/12:00pm 26.1 26.7 16.9 57 5.8 N 9 15 5 8 1014.6 1012.0 0.0
23/11:30am 24.4 24.8 14.8 55 5.9 NE 6 15 3 8 1015.0 1012.5 0.0
23/11:00am 25.5 25.7 14.3 50 6.8 NNE 6 13 3 7 1015.4 1012.9 0.0
23/10:30am 24.6 25.5 15.2 55 5.8 NNE 4 9 2 5 1015.7 1013.2 0.0
23/10:00am 23.3 23.0 12.6 51 6.3 NE 6 11 3 6 1015.9 1013.4 0.0
23/09:30am 24.2 24.6 12.5 48 6.9 NE 2 6 1 3 1016.0 1013.5 0.0
23/09:00am 23.1 23.3 11.8 49 6.5 S 2 6 1 3 1016.3 1013.7 0.2
23/08:30am 21.5 21.0 10.6 50 6.1 S 4 7 2 4 1016.3 1013.7 0.2
23/08:00am 20.2 19.6 10.3 53 5.5 S 4 7 2 4 1016.0 1013.5 0.2
23/07:30am 18.8 18.0 9.6 55 5.0 SSW 4 7 2 4 1015.9 1013.4 0.2
23/07:00am 17.2 17.2 11.2 68 3.3 SSW 2 4 1 2 1015.5 1013.0 0.2
23/06:30am 17.1 17.1 9.8 62 3.9 CALM 0 2 0 1 1015.2 1012.7 0.2
23/06:00am 17.5 16.8 9.9 61 4.1 SSW 4 6 2 3 1015.1 1012.6 0.2
23/05:30am 17.7 17.0 11.3 66 3.6 SSW 6 11 3 6 1015.1 1012.6 0.2
23/05:00am 17.3 17.4 14.0 81 1.9 SSW 6 11 3 6 1014.8 1012.3 0.2
23/04:30am 17.7 19.9 17.4 98 0.2 SW 2 9 1 5 1014.5 1011.9 0.2
23/04:00am 17.0 19.2 16.5 97 0.3 CALM 0 0 0 0 1014.2 1011.7 0.2
23/03:30am 17.1 19.3 16.5 96 0.4 CALM 0 0 0 0 1014.2 1011.7 0.2
23/03:00am 17.9 20.4 17.3 96 0.4 CALM 0 0 0 0 1014.6 1012.0 0.2
23/02:30am 18.1 20.7 17.5 96 0.4 CALM 0 0 0 0 1014.6 1012.0 0.2
23/02:00am 18.2 20.8 17.4 95 0.5 CALM 0 0 0 0 1014.8 1012.3 0.2
23/01:30am 18.8 21.6 18.0 95 0.5 CALM 0 0 0 0 1015.3 1012.8 0.2
23/01:00am 19.0 21.8 18.0 94 0.6 CALM 0 0 0 0 1015.7 1013.2 0.2
23/12:30am 19.8 22.3 19.1 96 0.5 NNE 4 7 2 4 1015.6 1013.1 0.2
23/12:00am 20.1 22.8 19.4 96 0.5 NNE 4 9 2 5 1015.8 1013.3 0.2
 
Date/Time
EST
Temp
°C
App
Temp
°C
Dew
Point
°C
Rel
Hum
%
Delta-T
°C
Wind Press
QNH
hPa
Press
MSL
hPa
Rain since
9am
mm
Dir  Spd
km/h
Gust
km/h
Spd
kts
Gust
kts
22/11:30pm 20.2 23.3 19.5 96 0.5 NNE 2 7 1 4 1016.0 1013.5 0.2
22/11:00pm 20.0 23.0 19.3 96 0.5 NNE 2 7 1 4 1015.9 1013.4 0.2
22/10:30pm 20.2 22.9 19.4 95 0.5 NE 4 11 2 6 1016.0 1013.5 0.2
22/10:00pm 20.2 22.8 19.2 94 0.6 NNE 4 9 2 5 1015.7 1013.2 0.2
22/09:30pm 20.2 22.4 19.2 94 0.6 NNE 6 11 3 6 1015.5 1013.0 0.2
22/09:00pm 20.0 21.8 18.8 93 0.8 NNE 7 15 4 8 1015.5 1013.0 0.2
22/08:30pm 20.1 22.4 18.6 91 1.0 NE 4 7 2 4 1015.3 1012.8 0.2
22/08:00pm 20.2 22.2 18.7 91 1.0 NE 6 13 3 7 1015.3 1012.8 0.2
22/07:30pm 20.3 22.2 18.6 90 1.1 NE 6 13 3 7 1014.9 1012.4 0.2
22/07:00pm 20.7 22.4 18.6 88 1.3 NNE 7 13 4 7 1014.8 1012.3 0.2
22/06:30pm 21.0 22.7 18.4 85 1.7 NNE 7 13 4 7 1014.6 1012.0 0.2
22/06:00pm 21.6 23.6 18.8 84 1.8 NNE 6 13 3 7 1014.5 1011.9 0.2
22/05:30pm 22.4 24.2 18.8 80 2.3 NNE 7 15 4 8 1014.1 1011.6 0.2
22/05:00pm 23.5 25.4 19.0 76 2.9 NNE 7 15 4 8 1013.9 1011.4 0.2
22/04:30pm 24.3 25.4 18.9 72 3.5 NNE 11 19 6 10 1013.8 1011.3 0.2
22/04:00pm 24.7 25.7 18.6 69 4.0 NNE 11 19 6 10 1013.7 1011.2 0.2
22/03:30pm 24.9 26.3 18.6 68 4.1 NNE 9 17 5 9 1013.6 1011.1 0.2
22/03:00pm 25.9 27.0 18.1 62 5.0 NE 9 17 5 9 1013.6 1011.1 0.2
22/02:30pm 26.5 27.5 16.4 53 6.4 N 6 11 3 6 1013.8 1011.3 0.2
22/02:00pm 27.6 30.0 16.9 52 6.8 CALM 0 4 0 2 1014.0 1011.5 0.2
22/01:30pm 26.7 28.2 15.7 51 6.9 SSE 2 7 1 4 1014.6 1012.0 0.2
22/01:00pm 26.1 27.4 16.1 54 6.3 NE 4 6 2 3 1015.0 1012.5 0.2
22/12:30pm 26.4 27.6 15.8 52 6.6 NNW 4 9 2 5 1015.4 1012.9 0.2
22/12:00pm 26.3 28.1 17.4 58 5.7 N 4 7 2 4 1015.9 1013.4 0.2
22/11:30am 24.2 25.8 17.0 64 4.5 SW 4 11 2 6 1016.7 1014.2 0.2
22/11:00am 25.4 26.8 17.8 62 4.9 SSW 7 15 4 8 1017.0 1014.5 0.2
22/10:30am 23.3 23.6 17.1 68 3.9 S 11 17 6 9 1017.4 1014.9 0.0
22/10:00am 23.3 25.0 18.4 74 3.1 SSW 7 13 4 7 1017.4 1014.9 0.0
22/09:30am 22.2 23.0 18.2 78 2.6 SSW 11 19 6 10 1017.5 1015.0 0.0
22/09:00am 20.9 22.3 18.7 87 1.4 SSW 9 17 5 9 1017.6 1015.1 0.4

Other Formats:

Comma delimited format used in spreadsheet applications
http://www.bom.gov.au/fwo/IDQ60801/IDQ60801.95293.axf

JavaScript Object Notation format (JSON) in row-major order
http://www.bom.gov.au/fwo/IDQ60801/IDQ60801.95293.json